createdAt,value
2019-02-05T00:03:39.535Z,-2.50
2019-02-05T00:08:47.756Z,-2.60
2019-02-05T00:13:52.774Z,-2.70
2019-02-05T00:18:58.250Z,-2.80
2019-02-05T00:24:04.687Z,-2.90
2019-02-05T00:29:09.878Z,-2.80
2019-02-05T00:34:16.415Z,-2.80
2019-02-05T00:39:26.562Z,-2.80
2019-02-05T00:44:33.729Z,-2.80
2019-02-05T00:49:39.192Z,-2.80
2019-02-05T00:54:43.931Z,-2.80
2019-02-05T00:59:51.578Z,-2.90
2019-02-05T01:04:57.282Z,-2.90
2019-02-05T01:10:02.479Z,-2.80
2019-02-05T01:15:09.190Z,-2.70
2019-02-05T01:20:17.082Z,-2.70
2019-02-05T01:25:22.265Z,-2.70
2019-02-05T01:30:29.166Z,-2.80
2019-02-05T01:35:34.634Z,-2.90
2019-02-05T01:40:40.259Z,-3.00
2019-02-05T01:45:49.060Z,-3.10
2019-02-05T01:50:54.147Z,-3.30
2019-02-05T01:55:59.576Z,-3.30
2019-02-05T02:01:05.257Z,-3.30
2019-02-05T02:06:10.323Z,-3.50
2019-02-05T02:11:18.117Z,-3.70
2019-02-05T02:16:24.778Z,-3.80
2019-02-05T02:21:29.407Z,-3.80
2019-02-05T02:26:35.127Z,-3.60
2019-02-05T02:31:39.885Z,-3.50
2019-02-05T02:36:44.512Z,-3.60
2019-02-05T02:41:49.436Z,-3.80
2019-02-05T02:46:58.590Z,-4.00
2019-02-05T02:52:04.300Z,-4.20
2019-02-05T02:57:10.023Z,-4.30
2019-02-05T03:02:16.043Z,-4.30
2019-02-05T03:07:20.979Z,-4.40
2019-02-05T03:12:26.144Z,-4.50
2019-02-05T03:17:31.694Z,-4.50
2019-02-05T03:22:37.331Z,-4.50
2019-02-05T03:27:45.682Z,-4.40
2019-02-05T03:32:52.045Z,-4.40
2019-02-05T03:37:57.477Z,-4.60
2019-02-05T03:43:05.447Z,-4.60
2019-02-05T03:48:11.113Z,-4.70
2019-02-05T03:53:19.098Z,-4.70
2019-02-05T03:58:40.379Z,-4.60
2019-02-05T04:04:31.739Z,-4.50
2019-02-05T04:10:20.578Z,-4.40
2019-02-05T04:16:11.841Z,-4.60
2019-02-05T04:22:18.618Z,-4.80
2019-02-05T04:27:55.010Z,-4.80
2019-02-05T04:33:17.235Z,-4.90
2019-02-05T04:38:51.395Z,-4.90
2019-02-05T04:44:36.009Z,-5.00
2019-02-05T04:50:16.557Z,-5.10
2019-02-05T04:56:09.448Z,-5.10
2019-02-05T05:01:51.278Z,-5.20
2019-02-05T05:07:19.775Z,-5.30
2019-02-05T05:12:25.501Z,-5.30
2019-02-05T05:17:31.620Z,-5.30
2019-02-05T05:22:37.435Z,-5.40
2019-02-05T05:27:44.144Z,-5.50
2019-02-05T05:32:50.948Z,-5.50
2019-02-05T05:37:56.071Z,-5.40
2019-02-05T05:43:01.319Z,-5.30
2019-02-05T05:48:08.126Z,-5.20
2019-02-05T05:53:17.027Z,-5.10
2019-02-05T05:58:25.830Z,-5.20
2019-02-05T06:03:31.621Z,-5.30
2019-02-05T06:08:37.357Z,-5.40
2019-02-05T06:13:45.598Z,-5.50
2019-02-05T06:18:51.247Z,-5.50
2019-02-05T06:23:57.688Z,-5.60
2019-02-05T06:29:02.881Z,-5.60
2019-02-05T06:34:09.517Z,-5.70
2019-02-05T06:39:14.533Z,-5.70
2019-02-05T06:44:21.059Z,-5.70
2019-02-05T06:49:31.214Z,-5.70
2019-02-05T06:54:36.027Z,-5.70
2019-02-05T06:59:41.571Z,-5.70
2019-02-05T07:04:49.724Z,-5.60
2019-02-05T07:09:58.239Z,-5.70
2019-02-05T07:15:07.488Z,-5.60
2019-02-05T07:20:13.429Z,-5.50
2019-02-05T07:25:21.386Z,-5.40
2019-02-05T07:30:28.492Z,-5.20
2019-02-05T07:35:33.223Z,-5.10
2019-02-05T07:40:38.691Z,-4.90
2019-02-05T07:45:44.352Z,-4.80
2019-02-05T07:50:49.330Z,-4.60
2019-02-05T07:55:55.375Z,-4.40
2019-02-05T08:01:00.029Z,-4.30
2019-02-05T08:06:05.670Z,-4.10
2019-02-05T08:11:12.095Z,-4.00
2019-02-05T08:16:18.540Z,-3.80
2019-02-05T08:21:23.823Z,-3.70
2019-02-05T08:26:30.194Z,-3.60
2019-02-05T08:31:35.279Z,-3.50
2019-02-05T08:36:43.799Z,-3.40
2019-02-05T08:41:48.960Z,-3.20
2019-02-05T08:46:54.135Z,-3.10
2019-02-05T08:51:59.882Z,-3.00
2019-02-05T08:57:05.134Z,-2.80
2019-02-05T09:02:09.972Z,-2.70
2019-02-05T09:07:17.409Z,-2.50
2019-02-05T09:12:22.336Z,-2.40
2019-02-05T09:17:27.842Z,-2.20
2019-02-05T09:22:32.952Z,-1.70
2019-02-05T09:27:37.866Z,0.60
2019-02-05T09:32:45.059Z,2.90
2019-02-05T09:37:51.396Z,3.30
2019-02-05T09:43:01.985Z,4.40
2019-02-05T09:48:09.005Z,4.80
2019-02-05T09:53:14.211Z,5.50
2019-02-05T09:58:21.035Z,5.60
2019-02-05T10:03:26.115Z,5.50
2019-02-05T10:08:31.377Z,4.80
2019-02-05T10:13:36.741Z,3.40
2019-02-05T10:18:45.899Z,2.80
2019-02-05T10:23:49.707Z,2.20
2019-02-05T10:28:55.790Z,1.90
2019-02-05T10:34:01.009Z,1.20
2019-02-05T10:39:10.841Z,1.30
2019-02-05T10:44:15.863Z,1.30
2019-02-05T10:49:21.678Z,1.40
2019-02-05T10:54:26.885Z,1.60
2019-02-05T10:59:32.330Z,1.60
2019-02-05T11:04:37.219Z,1.80
2019-02-05T11:09:45.919Z,2.10
2019-02-05T11:14:53.328Z,2.20
2019-02-05T11:19:59.060Z,2.50
2019-02-05T11:25:03.714Z,2.70
2019-02-05T11:30:20.237Z,2.90
2019-02-05T11:35:23.757Z,3.00
2019-02-05T11:40:33.776Z,3.30
2019-02-05T11:45:39.055Z,3.30
2019-02-05T11:50:44.233Z,3.60
2019-02-05T11:55:50.477Z,3.80
2019-02-05T12:01:15.906Z,4.10
2019-02-05T12:06:23.443Z,4.10
2019-02-05T12:11:28.650Z,4.30
2019-02-05T12:16:34.265Z,3.90
2019-02-05T12:21:39.620Z,4.00
2019-02-05T12:26:44.640Z,4.30
2019-02-05T12:31:50.449Z,4.40
2019-02-05T12:36:56.793Z,4.10
2019-02-05T12:42:01.639Z,4.10
2019-02-05T12:47:12.584Z,4.40
2019-02-05T12:52:19.285Z,4.70
2019-02-05T12:57:25.841Z,4.80
2019-02-05T13:02:34.732Z,4.70
2019-02-05T13:07:41.552Z,4.90
2019-02-05T13:12:46.367Z,5.00
2019-02-05T13:17:51.369Z,4.90
2019-02-05T13:23:07.485Z,5.10
2019-02-05T13:28:15.563Z,5.30
2019-02-05T13:33:24.619Z,5.40
2019-02-05T13:38:30.876Z,5.40
2019-02-05T13:43:35.797Z,5.70
2019-02-05T13:48:47.064Z,5.50
2019-02-05T13:53:52.858Z,5.10
2019-02-05T13:59:01.479Z,5.30
2019-02-05T14:04:13.189Z,5.20
2019-02-05T14:09:18.388Z,5.20
2019-02-05T14:14:24.185Z,5.00
2019-02-05T14:19:29.620Z,5.30
2019-02-05T14:24:37.616Z,5.50
2019-02-05T14:29:42.716Z,5.50
2019-02-05T14:34:47.503Z,5.40
2019-02-05T14:39:54.118Z,5.20
2019-02-05T14:44:59.634Z,5.10
2019-02-05T14:50:07.965Z,5.10
2019-02-05T14:55:12.959Z,5.00
2019-02-05T15:00:27.326Z,5.10
2019-02-05T15:05:38.602Z,5.10
2019-02-05T15:10:44.901Z,4.90
2019-02-05T15:15:53.016Z,4.70
2019-02-05T15:20:58.657Z,4.60
2019-02-05T15:26:06.833Z,4.50
2019-02-05T15:31:12.121Z,4.20
2019-02-05T15:36:36.128Z,3.90
2019-02-05T15:41:41.349Z,3.60
2019-02-05T15:46:46.250Z,3.30
2019-02-05T15:51:51.439Z,3.00
2019-02-05T15:56:57.324Z,2.60
2019-02-05T16:02:06.496Z,2.30
2019-02-05T16:07:10.881Z,1.90
2019-02-05T16:12:18.118Z,1.60
2019-02-05T16:17:26.521Z,1.40
2019-02-05T16:22:34.636Z,1.10
2019-02-05T16:27:40.782Z,0.90
2019-02-05T16:32:48.786Z,0.60
2019-02-05T16:37:55.762Z,0.40
2019-02-05T16:43:01.553Z,0.20
2019-02-05T16:48:06.487Z,0.00
2019-02-05T16:53:13.573Z,-0.20
2019-02-05T16:58:20.219Z,-0.30
2019-02-05T17:03:25.401Z,-0.30
2019-02-05T17:08:33.004Z,-0.40
2019-02-05T17:13:37.429Z,-0.60
2019-02-05T17:18:42.490Z,-0.70
2019-02-05T17:23:47.522Z,-0.80
2019-02-05T17:28:52.211Z,-0.80
2019-02-05T17:33:58.530Z,-0.90
2019-02-05T17:39:05.012Z,-1.00
2019-02-05T17:44:10.192Z,-1.10
2019-02-05T17:49:15.148Z,-1.20
2019-02-05T17:54:20.182Z,-1.30
2019-02-05T17:59:25.109Z,-1.40
2019-02-05T18:04:32.718Z,-1.50
2019-02-05T18:09:44.742Z,-1.50
2019-02-05T18:14:53.388Z,-1.60
2019-02-05T18:20:00.835Z,-1.70
2019-02-05T18:25:11.669Z,-1.80
2019-02-05T18:30:28.908Z,-1.80
2019-02-05T18:35:35.429Z,-1.80
2019-02-05T18:40:47.971Z,-1.90
2019-02-05T18:45:53.716Z,-2.00
2019-02-05T18:50:58.749Z,-2.00
2019-02-05T18:56:03.765Z,-2.10
2019-02-05T19:01:09.106Z,-2.10
2019-02-05T19:06:13.984Z,-2.20
2019-02-05T19:11:25.677Z,-2.30
2019-02-05T19:16:31.681Z,-2.20
2019-02-05T19:21:36.611Z,-2.10
2019-02-05T19:26:46.906Z,-2.10
2019-02-05T19:31:52.836Z,-2.10
2019-02-05T19:36:58.500Z,-2.20
2019-02-05T19:42:03.302Z,-2.30
2019-02-05T19:47:19.166Z,-2.40
2019-02-05T19:52:23.693Z,-2.40
2019-02-05T19:57:28.752Z,-2.50
2019-02-05T20:02:34.632Z,-2.60
2019-02-05T20:07:39.541Z,-2.70
2019-02-05T20:12:46.846Z,-2.70
2019-02-05T20:17:53.452Z,-2.70
2019-02-05T20:23:02.699Z,-2.70
2019-02-05T20:28:08.194Z,-2.80
2019-02-05T20:33:15.105Z,-2.90
2019-02-05T20:38:23.258Z,-2.90
2019-02-05T20:43:28.067Z,-2.80
2019-02-05T20:48:34.061Z,-2.80
2019-02-05T20:53:38.497Z,-2.90
2019-02-05T20:58:43.519Z,-3.00
2019-02-05T21:03:49.148Z,-3.00
2019-02-05T21:08:54.196Z,-3.00
2019-02-05T21:13:59.520Z,-3.10
2019-02-05T21:19:04.848Z,-3.20
2019-02-05T21:24:09.725Z,-3.30
2019-02-05T21:29:14.782Z,-3.30
2019-02-05T21:34:20.048Z,-3.30
2019-02-05T21:39:25.919Z,-3.40
2019-02-05T21:44:30.998Z,-3.40
2019-02-05T21:49:35.505Z,-3.40
2019-02-05T21:54:40.386Z,-3.40
2019-02-05T21:59:45.213Z,-3.50
2019-02-05T22:04:50.664Z,-3.50
2019-02-05T22:09:57.615Z,-3.50
2019-02-05T22:15:02.426Z,-3.60
2019-02-05T22:20:09.864Z,-3.60
2019-02-05T22:25:17.566Z,-3.70
2019-02-05T22:30:32.338Z,-3.70
2019-02-05T22:35:37.120Z,-3.80
2019-02-05T22:40:42.939Z,-3.80
2019-02-05T22:45:48.051Z,-3.90
2019-02-05T22:50:53.424Z,-4.00
2019-02-05T22:55:58.207Z,-4.10
2019-02-05T23:01:50.895Z,-4.20
2019-02-05T23:07:09.075Z,-4.30
2019-02-05T23:12:29.255Z,-4.30
2019-02-05T23:17:34.009Z,-4.20
2019-02-05T23:22:38.657Z,-4.30
2019-02-05T23:27:44.295Z,-4.40
2019-02-05T23:32:48.687Z,-4.40
2019-02-05T23:37:54.840Z,-4.40
2019-02-05T23:42:59.566Z,-4.40
2019-02-05T23:48:04.489Z,-4.40
2019-02-05T23:53:09.281Z,-4.40
2019-02-05T23:58:13.844Z,-4.40
